Time;durP1;ratioP1;P1;durP2;ratioP2;P2;SDS_P1;SDS_P2;PMS_P1;PMS_P2;Temp;Humidity;BMP_temperature;BMP_pressure;BME280_temperature;BME280_humidity;BME280_pressure;Samples;Min_cycle;Max_cycle;Signal;HPM_P1;HPM_P2
2022/07/05 00:00:57;;;;;;;2.30;1.83;;;25.00;51.80;;;;;;5099025;28;20239;-89
2022/07/05 00:03:23;;;;;;;4.23;1.90;;;25.10;51.80;;;;;;5098876;28;20174;-89
2022/07/05 00:05:49;;;;;;;2.37;1.70;;;25.10;51.80;;;;;;5098282;28;20200;-89
2022/07/05 00:08:14;;;;;;;1.73;1.47;;;25.10;51.80;;;;;;5098782;28;20206;-89
2022/07/05 00:10:40;;;;;;;2.13;1.40;;;25.10;51.80;;;;;;5098844;28;20170;-89
2022/07/05 00:13:07;;;;;;;2.37;1.50;;;25.00;51.80;;;;;;5098428;28;20174;-89
2022/07/05 00:15:33;;;;;;;1.63;1.50;;;25.00;51.90;;;;;;5116334;28;20166;-89
2022/07/05 00:17:59;;;;;;;1.67;1.40;;;25.00;51.90;;;;;;5098289;28;20239;-89
2022/07/05 00:20:25;;;;;;;2.23;1.63;;;24.90;52.10;;;;;;5099020;28;20411;-89
2022/07/05 00:22:51;;;;;;;1.93;1.83;;;24.90;52.10;;;;;;5099039;28;20193;-89
2022/07/05 00:25:17;;;;;;;1.83;1.60;;;24.80;52.60;;;;;;5098729;28;20551;-89
2022/07/05 00:27:43;;;;;;;3.00;1.80;;;24.50;53.20;;;;;;5098012;28;20220;-89
2022/07/05 00:30:09;;;;;;;1.97;1.60;;;24.40;53.30;;;;;;5098553;28;20574;-89
2022/07/05 00:32:36;;;;;;;2.30;1.70;;;24.30;53.50;;;;;;5096569;28;20181;-89
2022/07/05 00:35:06;;;;;;;2.10;1.53;;;24.20;53.60;;;;;;5097378;28;20186;-89
2022/07/05 00:37:32;;;;;;;1.80;1.70;;;24.10;53.60;;;;;;5096641;28;20276;-89
2022/07/05 00:39:58;;;;;;;2.20;1.67;;;23.90;54.00;;;;;;5097116;28;20260;-89
2022/07/05 00:42:23;;;;;;;2.20;1.53;;;23.70;54.30;;;;;;5096928;28;20190;-89
2022/07/05 00:44:49;;;;;;;1.60;1.50;;;23.80;54.20;;;;;;5096228;28;20174;-89
2022/07/05 00:47:15;;;;;;;1.93;1.83;;;23.90;54.20;;;;;;5097067;28;20213;-89
2022/07/05 00:49:41;;;;;;;1.73;1.63;;;23.90;53.90;;;;;;5099974;28;20193;-89
2022/07/05 00:52:09;;;;;;;3.10;1.87;;;23.90;54.00;;;;;;5101076;28;20255;-89
2022/07/05 00:54:37;;;;;;;2.13;1.70;;;23.80;53.90;;;;;;5100893;28;20611;-89
2022/07/05 00:57:03;;;;;;;2.33;1.90;;;23.80;54.00;;;;;;5099732;28;20166;-89
2022/07/05 00:59:30;;;;;;;2.63;1.97;;;23.70;54.00;;;;;;5100745;28;20171;-89
2022/07/05 01:01:57;;;;;;;1.80;1.70;;;23.70;54.00;;;;;;5101402;28;20193;-89
2022/07/05 01:04:23;;;;;;;2.47;1.60;;;23.70;53.90;;;;;;5101750;28;20171;-89
2022/07/05 01:06:50;;;;;;;2.63;1.80;;;23.70;54.00;;;;;;5102901;28;20526;-89
2022/07/05 01:09:18;;;;;;;2.00;1.70;;;23.50;54.20;;;;;;5101508;28;20174;-89
2022/07/05 01:11:45;;;;;;;2.53;1.60;;;23.40;54.50;;;;;;5101902;28;20182;-89
2022/07/05 01:14:22;;;;;;;1.50;1.40;;;23.30;54.80;;;;;;5102051;28;20178;-89
2022/07/05 01:16:54;;;;;;;2.00;1.77;;;23.30;54.90;;;;;;5102450;28;20181;-89
2022/07/05 01:19:21;;;;;;;1.97;1.60;;;23.20;55.10;;;;;;5101629;28;20178;-89
2022/07/05 01:21:48;;;;;;;2.27;1.80;;;23.30;55.10;;;;;;5101909;28;20177;-89
2022/07/05 01:24:17;;;;;;;3.07;1.80;;;23.40;54.90;;;;;;5101446;28;20170;-89
2022/07/05 01:26:48;;;;;;;1.80;1.70;;;23.40;54.70;;;;;;5101984;28;20300;-89
2022/07/05 01:29:14;;;;;;;2.10;1.60;;;23.40;54.70;;;;;;5101822;28;20150;-89
2022/07/05 01:31:40;;;;;;;1.97;1.60;;;23.40;54.80;;;;;;5101879;28;20455;-89
2022/07/05 01:34:07;;;;;;;2.30;1.60;;;23.20;55.10;;;;;;5119266;28;20575;-88
2022/07/05 01:36:34;;;;;;;2.40;1.70;;;23.10;55.50;;;;;;5101063;28;20197;-89
2022/07/05 01:39:05;;;;;;;2.80;1.50;;;23.00;55.70;;;;;;5101531;28;20174;-89
2022/07/05 01:41:31;;;;;;;2.33;1.50;;;23.00;55.80;;;;;;5101742;28;20277;-89
2022/07/05 01:43:57;;;;;;;2.40;1.60;;;23.10;55.70;;;;;;5101000;28;20330;-89
2022/07/05 01:46:25;;;;;;;3.17;1.80;;;23.20;55.90;;;;;;5101375;28;20201;-88
2022/07/05 01:48:55;;;;;;;1.93;1.60;;;23.20;55.40;;;;;;5101593;28;20173;-89
2022/07/05 01:51:29;;;;;;;1.50;1.40;;;23.10;55.50;;;;;;5101419;28;20173;-89
2022/07/05 01:53:55;;;;;;;1.83;1.60;;;23.20;55.60;;;;;;5101801;28;20209;-89
2022/07/05 01:56:21;;;;;;;1.87;1.53;;;23.20;55.40;;;;;;5101612;28;20173;-88
2022/07/05 01:58:47;;;;;;;2.10;1.67;;;23.20;55.40;;;;;;5117651;28;20177;-89
2022/07/05 02:01:13;;;;;;;2.90;1.70;;;23.20;55.20;;;;;;5100052;28;20174;-89
2022/07/05 02:03:44;;;;;;;2.20;1.53;;;23.20;55.20;;;;;;5099654;28;20286;-89
2022/07/05 02:06:11;;;;;;;2.07;1.60;;;23.20;55.30;;;;;;5100129;28;20199;-89
2022/07/05 02:08:36;;;;;;;2.13;1.60;;;23.10;55.30;;;;;;5099577;28;20205;-89
2022/07/05 02:11:04;;;;;;;3.70;1.73;;;23.10;55.80;;;;;;5098741;28;20576;-89
2022/07/05 02:13:29;;;;;;;2.43;1.50;;;22.90;56.10;;;;;;5100202;28;20173;-89
2022/07/05 02:15:55;;;;;;;3.53;1.70;;;22.90;55.90;;;;;;5099325;28;20182;-89
2022/07/05 02:18:21;;;;;;;2.27;1.50;;;22.90;56.20;;;;;;5099491;28;20189;-89
2022/07/05 02:20:47;;;;;;;1.60;1.50;;;23.10;55.90;;;;;;5099942;28;20188;-89
2022/07/05 02:23:13;;;;;;;1.87;1.53;;;23.00;56.10;;;;;;5099414;28;20174;-89
2022/07/05 02:25:39;;;;;;;2.17;1.50;;;23.00;56.10;;;;;;5117199;28;20193;-90
2022/07/05 02:28:05;;;;;;;1.47;1.37;;;23.00;56.30;;;;;;5099170;28;20270;-89
2022/07/05 02:30:30;;;;;;;2.03;1.50;;;22.90;56.10;;;;;;5099823;28;20352;-89
2022/07/05 02:32:56;;;;;;;1.80;1.50;;;23.00;56.00;;;;;;5099124;28;20446;-90
2022/07/05 02:35:24;;;;;;;1.70;1.60;;;22.90;56.10;;;;;;5116754;28;20660;-89
2022/07/05 02:37:49;;;;;;;1.50;1.40;;;23.00;56.10;;;;;;5099187;28;20200;-89
2022/07/05 02:40:15;;;;;;;1.80;1.50;;;22.90;56.20;;;;;;5098295;28;20174;-89
2022/07/05 02:42:41;;;;;;;2.43;1.60;;;23.00;56.10;;;;;;5099175;28;20181;-89
2022/07/05 02:45:07;;;;;;;1.57;1.47;;;23.20;55.60;;;;;;5100330;28;20212;-89
2022/07/05 02:47:34;;;;;;;1.57;1.47;;;23.30;55.50;;;;;;5099491;28;20214;-89
2022/07/05 02:50:07;;;;;;;1.53;1.40;;;23.30;55.30;;;;;;5099961;28;20173;-89
2022/07/05 02:52:34;;;;;;;1.60;1.40;;;23.40;55.20;;;;;;5100007;28;20560;-89
2022/07/05 02:55:00;;;;;;;1.40;1.30;;;23.40;55.10;;;;;;5099759;28;20514;-89
2022/07/05 02:57:25;;;;;;;3.30;1.60;;;23.30;55.30;;;;;;5098410;28;20214;-89
2022/07/05 02:59:54;;;;;;;1.93;1.53;;;23.20;55.60;;;;;;5100156;28;20166;-89
2022/07/05 03:02:21;;;;;;;2.50;1.63;;;23.10;56.00;;;;;;5116716;28;20507;-89
2022/07/05 03:04:47;;;;;;;2.90;1.70;;;22.90;56.30;;;;;;5099777;28;20174;-89
2022/07/05 03:07:12;;;;;;;2.17;1.70;;;22.80;56.60;;;;;;5098909;28;20200;-89
2022/07/05 03:09:38;;;;;;;6.03;1.70;;;22.80;56.60;;;;;;5099404;28;20174;-89
2022/07/05 03:12:04;;;;;;;1.50;1.40;;;22.80;56.70;;;;;;5099249;28;20171;-89
2022/07/05 03:14:30;;;;;;;1.93;1.80;;;22.80;56.80;;;;;;5099319;28;20238;-89
2022/07/05 03:16:57;;;;;;;2.67;1.73;;;22.70;56.80;;;;;;5098620;28;20276;-89
2022/07/05 03:19:22;;;;;;;1.80;1.70;;;22.70;56.90;;;;;;5099134;28;20171;-89
2022/07/05 03:21:48;;;;;;;2.13;1.77;;;22.70;57.00;;;;;;5099079;28;20188;-89
2022/07/05 03:24:14;;;;;;;3.13;1.67;;;22.70;57.00;;;;;;5098756;28;20208;-89
2022/07/05 03:26:39;;;;;;;3.37;1.50;;;22.70;57.10;;;;;;5099014;28;20192;-89
2022/07/05 03:29:05;;;;;;;1.67;1.47;;;22.60;57.20;;;;;;5099091;28;20183;-89
2022/07/05 03:31:31;;;;;;;2.80;1.60;;;22.50;57.50;;;;;;5098558;28;20264;-89
2022/07/05 03:33:57;;;;;;;1.63;1.50;;;22.70;57.10;;;;;;5098672;28;20170;-89
2022/07/05 03:36:23;;;;;;;1.53;1.40;;;22.70;56.90;;;;;;5098597;28;20189;-89
2022/07/05 03:38:48;;;;;;;1.60;1.50;;;22.80;56.50;;;;;;5098573;28;20267;-89
2022/07/05 03:41:14;;;;;;;2.60;1.80;;;23.00;56.20;;;;;;5099235;28;20173;-89
2022/07/05 03:43:40;;;;;;;1.60;1.50;;;22.90;56.40;;;;;;5099254;28;20173;-89
2022/07/05 03:46:06;;;;;;;2.40;1.57;;;22.80;56.70;;;;;;5098717;28;20474;-89
2022/07/05 03:48:33;;;;;;;1.40;1.30;;;22.80;56.60;;;;;;5098474;28;20227;-89
2022/07/05 03:50:58;;;;;;;1.83;1.30;;;23.00;56.30;;;;;;5098013;28;20170;-89
2022/07/05 03:53:24;;;;;;;1.60;1.50;;;23.10;56.10;;;;;;5097181;28;20235;-89
2022/07/05 03:55:50;;;;;;;1.63;1.40;;;23.00;56.40;;;;;;5097987;28;20180;-89
2022/07/05 03:58:16;;;;;;;1.63;1.40;;;22.80;56.70;;;;;;5097959;28;20174;-89
2022/07/05 04:00:43;;;;;;;1.77;1.60;;;22.90;56.70;;;;;;5097752;28;20188;-89
2022/07/05 04:03:08;;;;;;;1.70;1.60;;;22.80;56.90;;;;;;5098329;28;20454;-89
2022/07/05 04:05:34;;;;;;;1.90;1.63;;;22.80;57.10;;;;;;5098594;28;20178;-89
2022/07/05 04:08:00;;;;;;;1.90;1.50;;;22.70;57.20;;;;;;5098474;28;20591;-89
2022/07/05 04:10:26;;;;;;;1.83;1.30;;;22.90;56.90;;;;;;5098186;28;20177;-89
2022/07/05 04:12:51;;;;;;;2.27;1.60;;;22.90;56.80;;;;;;5098579;28;20264;-89
2022/07/05 04:15:17;;;;;;;4.27;1.80;;;22.80;57.00;;;;;;5097609;28;20493;-89
2022/07/05 04:17:51;;;;;;;1.43;1.33;;;23.00;56.70;;;;;;5097648;28;20177;-89
2022/07/05 04:20:18;;;;;;;2.47;1.63;;;22.80;57.10;;;;;;5097368;28;20495;-89
2022/07/05 04:22:43;;;;;;;1.80;1.40;;;22.80;57.10;;;;;;5096012;28;20551;-89
2022/07/05 04:25:19;;;;;;;3.40;1.40;;;23.00;56.90;;;;;;5097022;28;20185;-89
2022/07/05 04:27:45;;;;;;;2.93;1.80;;;23.00;56.80;;;;;;5096564;28;20200;-89
2022/07/05 04:30:11;;;;;;;3.90;1.50;;;23.00;56.80;;;;;;5097135;28;20184;-89
2022/07/05 04:32:37;;;;;;;3.40;1.73;;;22.90;57.00;;;;;;5096488;28;20173;-90
2022/07/05 04:35:03;;;;;;;2.40;1.50;;;22.90;56.90;;;;;;5096850;28;20192;-90
2022/07/05 04:37:29;;;;;;;2.57;1.60;;;22.90;57.00;;;;;;5098142;28;20177;-90
2022/07/05 04:39:54;;;;;;;2.60;1.70;;;23.00;57.00;;;;;;5096519;28;20281;-90
2022/07/05 04:42:20;;;;;;;1.50;1.40;;;23.10;56.70;;;;;;5096383;28;20177;-90
2022/07/05 04:44:46;;;;;;;1.60;1.50;;;23.20;56.70;;;;;;5095385;28;20215;-90
2022/07/05 04:47:12;;;;;;;2.67;1.80;;;23.20;56.60;;;;;;5096111;28;20213;-89
2022/07/05 04:49:38;;;;;;;2.63;1.70;;;23.30;56.40;;;;;;5096389;28;20180;-90
2022/07/05 04:52:04;;;;;;;2.23;1.40;;;23.40;56.30;;;;;;5095321;28;20181;-89
2022/07/05 04:54:29;;;;;;;2.77;1.63;;;23.40;56.20;;;;;;5096059;28;20184;-90
2022/07/05 04:56:55;;;;;;;1.60;1.50;;;23.50;56.20;;;;;;5095874;28;20177;-89
2022/07/05 04:59:21;;;;;;;1.57;1.47;;;23.60;56.00;;;;;;5096685;28;20444;-90
2022/07/05 05:01:46;;;;;;;1.77;1.50;;;23.60;55.80;;;;;;5095868;28;20206;-90
2022/07/05 05:04:12;;;;;;;2.10;1.60;;;23.70;55.80;;;;;;5094519;28;20186;-89
2022/07/05 05:06:38;;;;;;;2.13;1.80;;;23.70;55.60;;;;;;5094754;28;20177;-89
2022/07/05 05:09:04;;;;;;;2.47;1.50;;;23.80;55.50;;;;;;5094896;28;20427;-90
2022/07/05 05:11:30;;;;;;;1.63;1.50;;;23.80;55.50;;;;;;5095431;28;20179;-89
2022/07/05 05:13:55;;;;;;;3.13;1.70;;;23.90;55.30;;;;;;5095034;28;20197;-89
2022/07/05 05:16:21;;;;;;;2.37;1.50;;;23.90;55.20;;;;;;5095644;28;20174;-90
2022/07/05 05:18:46;;;;;;;2.27;1.60;;;24.00;55.20;;;;;;5094589;28;20242;-89
2022/07/05 05:21:12;;;;;;;2.00;1.60;;;24.00;55.00;;;;;;5112721;28;20409;-89
2022/07/05 05:23:38;;;;;;;2.33;1.57;;;24.10;54.90;;;;;;5096126;28;20179;-89
2022/07/05 05:26:04;;;;;;;3.17;1.70;;;24.10;55.00;;;;;;5094125;28;20177;-89
2022/07/05 05:28:29;;;;;;;2.47;1.60;;;24.20;55.00;;;;;;5092479;28;20301;-89
2022/07/05 05:30:55;;;;;;;2.17;1.80;;;24.30;54.80;;;;;;5094279;28;20225;-89
2022/07/05 05:33:21;;;;;;;2.80;1.60;;;24.30;54.80;;;;;;5094966;28;20477;-89
2022/07/05 05:35:46;;;;;;;2.00;1.70;;;24.30;55.00;;;;;;5098233;28;20424;-89
2022/07/05 05:38:12;;;;;;;2.97;1.90;;;24.20;55.20;;;;;;5098553;28;20189;-89
2022/07/05 05:40:40;;;;;;;2.73;1.70;;;24.10;55.30;;;;;;5097346;28;20421;-89
2022/07/05 05:43:06;;;;;;;5.27;2.10;;;24.10;55.40;;;;;;5097027;28;20178;-89
2022/07/05 05:45:31;;;;;;;2.00;1.77;;;24.10;55.20;;;;;;5098425;28;20178;-89
2022/07/05 05:47:58;;;;;;;2.00;1.70;;;24.30;55.40;;;;;;5098465;28;20260;-89
2022/07/05 05:50:33;;;;;;;3.23;2.10;;;24.30;55.30;;;;;;5098444;28;20604;-89
2022/07/05 05:53:00;;;;;;;2.83;2.13;;;24.40;55.40;;;;;;5098129;28;20234;-90
2022/07/05 05:55:27;;;;;;;2.40;2.20;;;24.30;55.80;;;;;;5115807;28;20170;-89
2022/07/05 05:57:52;;;;;;;2.90;1.93;;;24.50;55.30;;;;;;5097325;28;20170;-89
2022/07/05 06:00:20;;;;;;;1.90;1.70;;;24.60;54.60;;;;;;5097505;28;20178;-89
2022/07/05 06:02:49;;;;;;;1.90;1.60;;;24.80;54.30;;;;;;5095998;28;20285;-89
2022/07/05 06:05:15;;;;;;;3.53;1.73;;;24.90;54.10;;;;;;5096399;28;20185;-90
2022/07/05 06:07:52;;;;;;;2.03;1.80;;;25.00;54.00;;;;;;5095830;28;20210;-90
2022/07/05 06:10:21;;;;;;;1.97;1.60;;;25.10;53.70;;;;;;5096110;28;20170;-90
2022/07/05 06:12:48;;;;;;;5.67;1.80;;;25.20;53.50;;;;;;5097709;28;20170;-90
2022/07/05 06:15:14;;;;;;;3.03;1.80;;;25.40;53.40;;;;;;5097305;28;20170;-89
2022/07/05 06:17:40;;;;;;;5.00;1.50;;;25.40;53.20;;;;;;5097483;28;20321;-90
2022/07/05 06:20:08;;;;;;;3.40;1.70;;;25.50;53.00;;;;;;5096699;28;20284;-90
2022/07/05 06:22:34;;;;;;;2.97;1.70;;;25.60;52.90;;;;;;5096755;28;20536;-90
2022/07/05 06:25:00;;;;;;;3.27;1.90;;;25.70;52.70;;;;;;5096323;28;20174;-89
2022/07/05 06:27:25;;;;;;;2.43;1.73;;;25.90;52.50;;;;;;5094691;28;20197;-90
2022/07/05 06:29:51;;;;;;;7.60;1.90;;;25.90;52.40;;;;;;5096304;28;20166;-90
2022/07/05 06:32:17;;;;;;;2.70;1.70;;;26.10;52.20;;;;;;5097067;28;20171;-89
2022/07/05 06:34:42;;;;;;;2.47;1.80;;;26.10;52.00;;;;;;5096020;28;20190;-90
2022/07/05 06:37:08;;;;;;;5.23;1.87;;;26.30;51.90;;;;;;5096827;28;20178;-91
2022/07/05 06:39:35;;;;;;;4.77;1.73;;;26.30;51.80;;;;;;5096934;28;20170;-90
2022/07/05 06:42:01;;;;;;;3.53;1.80;;;26.40;51.60;;;;;;5095551;28;20177;-90
2022/07/05 06:44:26;;;;;;;4.47;2.10;;;26.50;51.50;;;;;;5094553;28;20174;-90
2022/07/05 06:46:52;;;;;;;4.17;1.80;;;26.60;51.40;;;;;;5094709;28;20607;-90
2022/07/05 06:49:18;;;;;;;4.77;2.10;;;26.80;51.20;;;;;;5095650;28;20181;-90
2022/07/05 06:51:44;;;;;;;3.33;1.90;;;26.90;51.10;;;;;;5094843;28;20385;-90
2022/07/05 06:54:09;;;;;;;3.50;2.03;;;27.00;50.90;;;;;;5092568;28;20170;-90
2022/07/05 06:56:35;;;;;;;2.50;1.80;;;27.00;50.70;;;;;;5094051;28;20174;-90
2022/07/05 06:59:01;;;;;;;3.07;1.77;;;27.20;50.60;;;;;;5092759;28;20537;-90
2022/07/05 07:01:28;;;;;;;2.83;1.90;;;27.30;50.60;;;;;;5093915;28;20625;-89
2022/07/05 07:03:53;;;;;;;4.60;1.90;;;27.40;50.40;;;;;;5095372;28;20179;-89
2022/07/05 07:06:20;;;;;;;3.20;1.93;;;27.50;50.30;;;;;;5093762;28;20208;-90
2022/07/05 07:11:30;;;;;;;2.50;1.90;;;27.90;49.90;;;;;;5111093;28;20232;-90
2022/07/05 07:13:56;;;;;;;2.47;1.77;;;28.20;49.50;;;;;;5093949;28;20173;-89
2022/07/05 07:16:22;;;;;;;3.07;1.70;;;28.60;49.20;;;;;;5094705;28;20184;-89
2022/07/05 07:18:47;;;;;;;3.30;2.07;;;29.00;48.80;;;;;;5093860;28;20174;-90
2022/07/05 07:21:13;;;;;;;3.90;2.17;;;29.50;48.30;;;;;;5093714;28;20174;-89
2022/07/05 07:23:39;;;;;;;2.43;1.90;;;30.00;47.70;;;;;;5094492;28;20252;-89
2022/07/05 07:26:04;;;;;;;3.17;2.10;;;30.40;47.30;;;;;;5094085;28;20428;-89
2022/07/05 07:28:30;;;;;;;2.77;2.10;;;30.80;46.90;;;;;;5091709;28;20209;-90
2022/07/05 07:30:56;;;;;;;3.37;2.10;;;31.00;46.50;;;;;;5094140;28;20170;-90
2022/07/05 07:33:22;;;;;;;2.73;1.90;;;31.30;46.10;;;;;;5093402;28;20523;-90
2022/07/05 07:35:47;;;;;;;2.90;2.17;;;31.50;45.80;;;;;;5093947;28;20296;-90
2022/07/05 07:38:13;;;;;;;4.63;2.40;;;31.70;45.70;;;;;;5094441;28;20209;-90
2022/07/05 07:40:39;;;;;;;4.23;2.13;;;31.90;45.30;;;;;;5110521;28;20197;-90
2022/07/05 07:43:04;;;;;;;2.93;2.10;;;32.00;45.20;;;;;;5093879;28;20277;-90
2022/07/05 07:45:31;;;;;;;3.20;1.93;;;32.10;45.10;;;;;;5094475;28;20243;-90
2022/07/05 07:47:57;;;;;;;2.95;2.10;;;32.20;45.00;;;;;;5093772;28;20248;-90
2022/07/05 07:50:22;;;;;;;4.05;2.10;;;32.50;44.80;;;;;;5111725;28;20202;-90
2022/07/05 07:52:48;;;;;;;3.28;2.10;;;32.40;44.60;;;;;;5093768;28;20166;-90
2022/07/05 07:55:15;;;;;;;2.60;1.98;;;31.90;45.00;;;;;;5092948;28;20170;-90
2022/07/05 07:57:41;;;;;;;6.60;2.38;;;32.20;44.80;;;;;;5110300;28;20170;-90
2022/07/05 08:00:08;;;;;;;3.45;2.30;;;32.80;44.40;;;;;;5093221;28;20174;-90
2022/07/05 08:02:33;;;;;;;3.53;2.10;;;32.90;44.30;;;;;;5111421;28;20198;-90
2022/07/05 08:04:59;;;;;;;2.22;2.03;;;33.10;43.90;;;;;;5092169;28;20451;-91
2022/07/05 08:07:25;;;;;;;3.00;2.08;;;33.20;43.80;;;;;;5092192;28;20371;-91
2022/07/05 08:09:52;;;;;;;3.17;2.15;;;33.30;43.80;;;;;;5092904;28;20174;-90
2022/07/05 08:12:19;;;;;;;3.35;2.20;;;33.50;43.60;;;;;;5092513;28;20177;-90
2022/07/05 08:14:45;;;;;;;4.05;2.10;;;33.50;43.50;;;;;;5091964;28;20170;-90
2022/07/05 08:17:12;;;;;;;3.80;2.17;;;33.60;43.50;;;;;;5092222;28;20166;-90
2022/07/05 08:22:22;;;;;;;2.30;1.85;;;33.60;43.10;;;;;;5109840;28;20201;-90
2022/07/05 08:24:48;;;;;;;3.10;2.20;;;33.30;43.60;;;;;;5091948;28;20428;-90
2022/07/05 08:27:15;;;;;;;2.33;1.70;;;33.50;43.50;;;;;;5093138;28;20263;-90
2022/07/05 08:29:41;;;;;;;3.13;2.10;;;33.60;43.30;;;;;;5092915;28;20193;-90
2022/07/05 08:32:08;;;;;;;3.63;2.33;;;32.80;43.30;;;;;;5092417;28;20170;-90
2022/07/05 08:34:34;;;;;;;2.63;2.00;;;31.80;44.10;;;;;;5091258;28;20301;-90
2022/07/05 08:37:00;;;;;;;2.50;1.90;;;31.10;44.70;;;;;;5092627;28;20201;-90
2022/07/05 08:39:26;;;;;;;3.10;2.22;;;31.00;45.00;;;;;;5091783;28;20181;-90
2022/07/05 08:41:53;;;;;;;4.32;1.95;;;30.60;45.10;;;;;;5093156;28;20182;-90
2022/07/05 08:44:21;;;;;;;2.13;1.73;;;30.40;45.30;;;;;;5092678;28;20261;-89
2022/07/05 08:46:48;;;;;;;4.88;1.95;;;31.10;45.70;;;;;;5092478;28;20234;-90
2022/07/05 08:49:14;;;;;;;2.88;1.90;;;31.10;45.20;;;;;;5110691;28;20166;-89
2022/07/05 08:51:42;;;;;;;1.70;1.60;;;30.60;45.30;;;;;;5091870;28;20265;-89
2022/07/05 08:54:12;;;;;;;3.15;2.05;;;31.10;45.50;;;;;;5092030;28;20328;-89
2022/07/05 08:56:40;;;;;;;1.90;1.75;;;31.90;44.90;;;;;;5092265;28;20170;-89
2022/07/05 08:59:06;;;;;;;2.00;1.70;;;32.20;44.60;;;;;;5092298;28;20194;-89
2022/07/05 09:01:34;;;;;;;3.90;2.28;;;32.20;44.50;;;;;;5091491;28;20202;-89
2022/07/05 09:04:03;;;;;;;2.28;2.05;;;32.10;44.40;;;;;;5091415;28;20478;-89
2022/07/05 09:06:32;;;;;;;2.45;1.70;;;31.60;44.50;;;;;;5089528;28;20166;-90
2022/07/05 09:08:59;;;;;;;3.25;2.00;;;31.00;44.90;;;;;;5091096;28;20224;-89
2022/07/05 09:11:38;;;;;;;2.55;1.90;;;30.80;45.20;;;;;;5113817;28;20166;-89
2022/07/05 09:14:20;;;;;;;2.38;1.80;;;30.80;45.30;;;;;;5092932;28;20170;-89
2022/07/05 09:16:48;;;;;;;2.03;1.70;;;30.70;45.30;;;;;;5111506;28;20166;-91
2022/07/05 09:19:14;;;;;;;2.58;2.20;;;30.60;45.30;;;;;;5094047;28;20166;-91
2022/07/05 09:21:40;;;;;;;2.40;1.77;;;30.50;45.50;;;;;;5110640;28;20362;-91
2022/07/05 09:24:09;;;;;;;2.75;1.70;;;30.20;45.50;;;;;;5093986;28;20268;-90
2022/07/05 09:26:46;;;;;;;2.15;1.85;;;30.10;45.50;;;;;;5095334;28;20166;-90
2022/07/05 09:29:18;;;;;;;2.10;1.70;;;30.00;45.40;;;;;;5094054;28;20194;-90
2022/07/05 09:31:45;;;;;;;1.85;1.75;;;29.90;45.70;;;;;;5092301;28;20412;-90
2022/07/05 09:34:20;;;;;;;2.03;1.80;;;30.00;45.80;;;;;;5093285;28;20328;-91
2022/07/05 09:37:01;;;;;;;2.05;1.80;;;29.90;45.80;;;;;;5093311;28;20178;-90
2022/07/05 09:39:30;;;;;;;3.47;1.90;;;29.90;45.90;;;;;;5094373;28;20216;-90
2022/07/05 09:42:20;;;;;;;2.22;1.90;;;29.90;45.80;;;;;;5092131;28;20563;-90
2022/07/05 09:44:56;;;;;;;2.95;1.98;;;29.90;45.80;;;;;;5111799;28;20189;-91
2022/07/05 09:47:22;;;;;;;;;;;29.90;45.90;;;;;;5092445;28;20697;-90
2022/07/05 09:49:49;;;;;;;2.80;2.00;;;30.00;45.90;;;;;;5094954;28;20427;-89
2022/07/05 09:52:29;;;;;;;3.40;1.80;;;30.00;45.80;;;;;;5112201;28;20283;-90
2022/07/05 09:55:07;;;;;;;2.53;1.90;;;30.10;45.90;;;;;;5094898;28;20253;-90
2022/07/05 09:57:35;;;;;;;2.13;1.95;;;30.10;45.80;;;;;;5112541;28;20269;-90
2022/07/05 10:00:05;;;;;;;2.40;2.10;;;30.10;45.80;;;;;;5093144;28;20166;-89
2022/07/05 10:02:35;;;;;;;2.38;2.10;;;29.90;45.80;;;;;;5092443;28;20281;-89
2022/07/05 10:05:14;;;;;;;2.75;2.10;;;29.90;45.70;;;;;;5093501;28;20174;-89
2022/07/05 10:07:53;;;;;;;3.85;1.85;;;29.80;45.70;;;;;;5094048;28;20217;-90
2022/07/05 10:10:22;;;;;;;2.63;2.10;;;29.80;45.70;;;;;;5093014;28;20170;-89
2022/07/05 10:12:51;;;;;;;2.05;1.85;;;29.80;45.50;;;;;;5093169;28;20320;-89
2022/07/05 10:15:24;;;;;;;2.90;1.70;;;29.80;45.30;;;;;;5093161;28;20174;-89
2022/07/05 10:18:08;;;;;;;3.17;1.88;;;29.70;45.60;;;;;;5092332;28;20435;-89
2022/07/05 10:20:37;;;;;;;2.65;2.15;;;29.60;45.50;;;;;;5091918;28;20744;-89
2022/07/05 10:23:07;;;;;;;4.38;2.17;;;29.60;45.60;;;;;;5095400;28;20186;-89
2022/07/05 10:25:36;;;;;;;2.03;1.83;;;29.70;45.60;;;;;;5093852;28;20535;-89
2022/07/05 10:28:03;;;;;;;3.22;2.03;;;29.60;45.70;;;;;;5093169;28;20208;-88
2022/07/05 10:30:29;;;;;;;2.25;1.80;;;29.60;45.70;;;;;;5092524;28;20572;-88
2022/07/05 10:32:56;;;;;;;3.35;1.90;;;29.50;45.70;;;;;;5092856;28;20238;-88
2022/07/05 10:35:22;;;;;;;2.47;1.80;;;29.50;45.80;;;;;;5091734;28;20194;-88
2022/07/05 10:37:49;;;;;;;2.10;1.90;;;29.50;45.70;;;;;;5093008;28;20182;-88
2022/07/05 10:40:16;;;;;;;2.50;1.77;;;29.50;45.70;;;;;;5110149;28;20181;-88
2022/07/05 10:42:52;;;;;;;3.67;1.70;;;29.50;45.50;;;;;;5091737;28;20460;-88
2022/07/05 10:45:39;;;;;;;2.80;1.80;;;29.50;45.30;;;;;;5091387;28;20615;-88
2022/07/05 10:48:24;;;;;;;2.35;1.90;;;29.50;45.30;;;;;;5091599;28;20209;-89
2022/07/05 10:50:57;;;;;;;2.47;1.80;;;29.50;45.40;;;;;;5092085;28;20166;-88
2022/07/05 10:53:30;;;;;;;2.58;2.00;;;29.50;45.40;;;;;;5092870;28;20432;-88
2022/07/05 10:56:11;;;;;;;2.42;1.63;;;29.50;45.30;;;;;;5091050;28;20251;-88
2022/07/05 10:58:44;;;;;;;1.73;1.60;;;29.50;45.30;;;;;;5092597;28;20182;-90
2022/07/05 11:01:19;;;;;;;1.90;1.80;;;29.50;45.00;;;;;;5092333;28;20204;-89
2022/07/05 11:03:48;;;;;;;1.65;1.52;;;29.40;44.90;;;;;;5092012;28;20505;-89
2022/07/05 11:06:30;;;;;;;1.83;1.73;;;29.40;44.20;;;;;;5092985;28;20181;-89
2022/07/05 11:08:59;;;;;;;1.60;1.50;;;29.40;44.60;;;;;;5091362;28;20210;-89
2022/07/05 11:11:28;;;;;;;2.97;1.77;;;29.50;44.90;;;;;;5092290;28;20545;-90
2022/07/05 11:13:55;;;;;;;2.20;1.63;;;29.50;44.80;;;;;;5092076;28;20170;-89
2022/07/05 11:16:30;;;;;;;2.20;1.75;;;29.50;44.70;;;;;;5092744;28;20198;-89
2022/07/05 11:19:21;;;;;;;2.40;1.88;;;29.50;44.90;;;;;;5092483;28;20170;-89
2022/07/05 11:22:04;;;;;;;2.33;1.60;;;29.40;44.00;;;;;;5090189;28;20630;-88
2022/07/05 11:24:37;;;;;;;1.83;1.70;;;29.40;44.00;;;;;;5093157;28;20292;-89
2022/07/05 11:27:09;;;;;;;2.20;1.70;;;29.40;44.90;;;;;;5091840;28;20474;-89
2022/07/05 11:29:52;;;;;;;1.40;1.30;;;29.40;45.00;;;;;;5094859;28;20166;-88
2022/07/05 11:32:18;;;;;;;2.15;1.60;;;29.40;44.90;;;;;;5091295;28;20173;-88
2022/07/05 11:34:46;;;;;;;1.42;1.33;;;29.30;44.60;;;;;;5108495;28;20182;-89
2022/07/05 11:37:34;;;;;;;3.17;1.65;;;29.30;45.00;;;;;;5108455;28;20170;-88
2022/07/05 11:40:14;;;;;;;2.35;1.70;;;29.30;44.90;;;;;;5091090;28;20491;-89
2022/07/05 11:42:50;;;;;;;1.95;1.58;;;29.20;45.10;;;;;;5090512;28;20601;-88
2022/07/05 11:45:21;;;;;;;1.65;1.50;;;29.20;45.10;;;;;;5109177;28;20185;-88
2022/07/05 11:47:47;;;;;;;3.38;1.60;;;29.10;43.60;;;;;;5092226;28;20210;-88
2022/07/05 11:50:13;;;;;;;2.22;1.40;;;29.20;44.90;;;;;;5090974;28;20166;-88
2022/07/05 11:52:40;;;;;;;2.47;1.50;;;29.20;44.70;;;;;;5109223;28;20237;-88
2022/07/05 11:55:08;;;;;;;2.72;1.67;;;29.30;45.00;;;;;;5090802;28;20555;-88
2022/07/05 11:57:34;;;;;;;2.50;1.60;;;29.30;45.10;;;;;;5092577;28;20195;-88
2022/07/05 12:00:00;;;;;;;1.55;1.45;;;29.20;44.90;;;;;;5091672;28;20460;-88
2022/07/05 12:02:26;;;;;;;4.80;1.70;;;29.20;45.20;;;;;;5092053;28;20445;-88
2022/07/05 12:04:53;;;;;;;2.08;1.65;;;29.20;45.30;;;;;;5091823;28;20225;-89
2022/07/05 12:07:25;;;;;;;2.20;1.63;;;29.20;45.00;;;;;;5089998;28;20205;-88
2022/07/05 12:12:44;;;;;;;2.65;1.70;;;29.10;45.20;;;;;;5107140;28;20176;-88
2022/07/05 12:15:16;;;;;;;1.90;1.70;;;29.20;45.00;;;;;;5090343;28;20161;-88
2022/07/05 12:17:44;;;;;;;1.63;1.52;;;29.20;45.10;;;;;;5092295;28;20170;-88
2022/07/05 12:20:12;;;;;;;2.00;1.58;;;29.20;45.30;;;;;;5090514;28;20174;-88
2022/07/05 12:22:43;;;;;;;2.15;1.60;;;29.20;45.20;;;;;;5089792;28;20243;-88
2022/07/05 12:25:12;;;;;;;2.75;1.80;;;29.20;45.30;;;;;;5108518;28;20217;-88
2022/07/05 12:27:40;;;;;;;3.65;1.80;;;29.20;44.80;;;;;;5090452;28;20198;-88
2022/07/05 12:30:09;;;;;;;1.88;1.60;;;29.20;45.20;;;;;;5089805;28;20178;-88
2022/07/05 12:32:52;;;;;;;1.60;1.50;;;29.20;45.10;;;;;;5091913;28;20365;-89
2022/07/05 12:35:36;;;;;;;1.60;1.40;;;29.20;44.40;;;;;;5091100;28;20186;-88
2022/07/05 12:38:08;;;;;;;3.08;1.50;;;29.20;44.20;;;;;;5109566;28;20628;-89
2022/07/05 12:40:35;;;;;;;3.00;1.98;;;29.20;45.30;;;;;;5091213;28;20200;-89
2022/07/05 12:43:02;;;;;;;1.77;1.60;;;29.20;44.30;;;;;;5089761;28;20177;-89
2022/07/05 12:45:28;;;;;;;2.45;1.60;;;29.10;45.10;;;;;;5097205;28;20181;-89
2022/07/05 12:47:57;;;;;;;1.60;1.50;;;29.10;44.90;;;;;;5095059;28;20205;-89
2022/07/05 12:50:24;;;;;;;1.90;1.60;;;29.00;44.60;;;;;;5094649;28;20268;-89
2022/07/05 12:59:02;;;;;;;1.83;1.55;;;29.10;45.40;;;;;;5113295;28;20731;-90
2022/07/05 13:01:39;;;;;;;1.80;1.50;;;29.00;44.30;;;;;;5094695;28;20228;-89
2022/07/05 13:04:06;;;;;;;2.42;1.60;;;29.00;45.60;;;;;;5094372;28;20548;-89
2022/07/05 13:06:55;;;;;;;1.70;1.58;;;29.00;43.80;;;;;;5093067;28;20170;-89